createdAt,value
2022-09-12T00:04:50.372Z,70.34
2022-09-12T00:09:53.449Z,70.48
2022-09-12T00:14:56.536Z,70.57
2022-09-12T00:19:59.770Z,70.54
2022-09-12T00:25:03.935Z,71.09
2022-09-12T00:30:07.947Z,71.40
2022-09-12T00:35:11.735Z,71.23
2022-09-12T00:40:15.364Z,71.36
2022-09-12T00:45:29.059Z,71.66
2022-09-12T00:50:33.731Z,71.72
2022-09-12T00:55:46.451Z,71.76
2022-09-12T01:00:50.132Z,71.99
2022-09-12T01:06:05.652Z,71.77
2022-09-12T01:11:11.463Z,71.91
2022-09-12T01:16:14.695Z,71.84
2022-09-12T01:21:45.384Z,72.18
2022-09-12T01:26:59.975Z,72.74
2022-09-12T01:32:08.943Z,72.62
2022-09-12T01:37:43.503Z,72.42
2022-09-12T01:42:57.088Z,72.61
2022-09-12T01:48:21.921Z,72.39
2022-09-12T01:53:37.030Z,72.73
2022-09-12T01:59:00.063Z,72.76
2022-09-12T02:04:19.282Z,73.07
2022-09-12T02:09:32.276Z,73.00
2022-09-12T02:14:47.176Z,72.83
2022-09-12T02:20:03.438Z,73.00
2022-09-12T02:25:10.682Z,73.29
2022-09-12T02:30:16.757Z,73.58
2022-09-12T02:35:57.527Z,73.95
2022-09-12T02:41:00.610Z,74.26
2022-09-12T02:46:14.268Z,74.29
2022-09-12T02:51:23.418Z,74.24
2022-09-12T02:56:31.390Z,74.53
2022-09-12T03:01:56.739Z,74.54
2022-09-12T03:07:46.870Z,74.79
2022-09-12T03:13:04.972Z,74.54
2022-09-12T03:18:51.724Z,74.24
2022-09-12T03:24:33.253Z,74.25
2022-09-12T03:29:39.588Z,74.40
2022-09-12T03:34:42.568Z,74.19
2022-09-12T03:39:45.825Z,74.27
2022-09-12T03:44:49.133Z,74.32
2022-09-12T03:49:55.139Z,74.54
2022-09-12T03:54:58.379Z,74.31
2022-09-12T04:00:02.265Z,74.37
2022-09-12T04:05:06.337Z,74.52
2022-09-12T04:10:09.897Z,74.16
2022-09-12T04:15:12.851Z,74.48
2022-09-12T04:20:15.951Z,75.27
2022-09-12T04:25:19.185Z,75.23
2022-09-12T04:30:22.313Z,75.12
2022-09-12T04:35:25.902Z,74.73
2022-09-12T04:40:32.226Z,75.29
2022-09-12T04:45:35.501Z,74.90
2022-09-12T04:50:38.903Z,74.97
2022-09-12T04:55:42.077Z,75.11
2022-09-12T05:00:45.214Z,75.19
2022-09-12T05:05:48.109Z,75.36
2022-09-12T05:10:50.982Z,75.53
2022-09-12T05:16:02.989Z,75.81
2022-09-12T05:21:09.574Z,75.44
2022-09-12T05:26:17.165Z,74.88
2022-09-12T05:31:26.528Z,75.08
2022-09-12T05:36:30.994Z,74.76
2022-09-12T05:41:36.114Z,75.37
2022-09-12T05:46:42.775Z,75.36
2022-09-12T05:51:46.178Z,75.23
2022-09-12T05:56:49.651Z,75.14
2022-09-12T06:01:52.546Z,75.20
2022-09-12T06:06:55.454Z,75.25
2022-09-12T06:11:58.902Z,75.63
2022-09-12T06:17:02.318Z,75.93
2022-09-12T06:22:05.214Z,76.32
2022-09-12T06:27:08.104Z,76.21
2022-09-12T06:32:11.815Z,76.32
2022-09-12T06:37:14.806Z,76.87
2022-09-12T06:42:20.031Z,76.72
2022-09-12T06:47:23.655Z,76.32
2022-09-12T06:52:26.657Z,76.84
2022-09-12T06:57:31.603Z,76.61
2022-09-12T07:02:34.467Z,76.15
2022-09-12T07:07:38.240Z,76.02
2022-09-12T07:12:41.134Z,76.04
2022-09-12T07:17:44.529Z,75.84
2022-09-12T07:22:47.382Z,75.72
2022-09-12T07:27:51.290Z,75.49
2022-09-12T07:32:54.890Z,75.79
2022-09-12T07:37:57.761Z,75.97
2022-09-12T07:43:00.591Z,76.39
2022-09-12T07:48:04.383Z,75.75
2022-09-12T07:53:07.282Z,76.18
2022-09-12T07:58:10.112Z,76.86
2022-09-12T08:03:12.948Z,76.86
2022-09-12T08:08:15.822Z,77.20
2022-09-12T08:13:18.694Z,77.09
2022-09-12T08:18:21.518Z,77.24
2022-09-12T08:23:25.248Z,77.36
2022-09-12T08:28:29.085Z,77.64
2022-09-12T08:33:33.832Z,77.44
2022-09-12T08:38:39.458Z,77.47
2022-09-12T08:44:09.067Z,77.65
2022-09-12T08:49:20.498Z,77.50
2022-09-12T08:54:31.252Z,77.83
2022-09-12T08:59:40.040Z,77.94
2022-09-12T09:05:01.564Z,78.14
2022-09-12T09:10:20.338Z,77.81
2022-09-12T09:16:08.041Z,77.46
2022-09-12T09:21:31.157Z,78.18
2022-09-12T09:27:23.657Z,78.33
2022-09-12T09:32:44.003Z,78.08
2022-09-12T09:38:02.051Z,78.35
2022-09-12T09:43:29.156Z,78.85
2022-09-12T09:48:37.034Z,78.48
2022-09-12T09:53:55.821Z,78.30
2022-09-12T09:59:17.884Z,78.32
2022-09-12T10:04:39.248Z,78.30
2022-09-12T10:10:06.262Z,78.40
2022-09-12T10:15:22.989Z,78.40
2022-09-12T10:20:40.613Z,78.67
2022-09-12T10:25:48.809Z,78.21
2022-09-12T10:30:56.381Z,78.10
2022-09-12T10:36:01.097Z,77.62
2022-09-12T10:41:08.568Z,77.33
2022-09-12T10:46:18.003Z,77.90
2022-09-12T10:51:24.111Z,77.68
2022-09-12T10:56:39.282Z,77.31
2022-09-12T11:01:53.385Z,76.10
2022-09-12T11:07:26.193Z,76.09
2022-09-12T11:13:00.846Z,75.56
2022-09-12T11:18:43.550Z,75.31
2022-09-12T11:24:05.871Z,75.42
2022-09-12T11:29:41.271Z,75.70
2022-09-12T11:35:15.121Z,75.58
2022-09-12T11:40:40.686Z,75.41
2022-09-12T11:45:46.263Z,75.30
2022-09-12T11:50:49.232Z,75.47
2022-09-12T11:56:17.140Z,75.16
2022-09-12T12:01:31.594Z,75.48
2022-09-12T12:06:56.280Z,75.61
2022-09-12T12:12:05.496Z,75.32
2022-09-12T12:17:23.007Z,75.30
2022-09-12T12:22:26.382Z,75.64
2022-09-12T12:28:05.597Z,75.77
2022-09-12T12:33:13.292Z,75.39
2022-09-12T12:38:36.045Z,75.47
2022-09-12T12:43:38.966Z,75.05
2022-09-12T12:49:10.847Z,75.25
2022-09-12T12:54:32.680Z,74.97
2022-09-12T12:59:35.748Z,75.12
2022-09-12T13:04:45.605Z,75.09
2022-09-12T13:09:53.074Z,74.82
2022-09-12T13:15:02.058Z,74.91
2022-09-12T13:20:29.739Z,74.95
2022-09-12T13:25:37.652Z,75.01
2022-09-12T13:31:05.334Z,74.93
2022-09-12T13:36:43.208Z,74.94
2022-09-12T13:42:13.672Z,74.68
2022-09-12T13:47:33.451Z,74.31
2022-09-12T13:52:39.230Z,74.34
2022-09-12T13:57:42.174Z,74.62
2022-09-12T14:02:47.491Z,74.40
2022-09-12T14:08:00.299Z,74.23
2022-09-12T14:13:22.873Z,74.33
2022-09-12T14:18:33.982Z,74.05
2022-09-12T14:23:45.088Z,73.58
2022-09-12T14:28:48.172Z,73.05
2022-09-12T14:33:57.194Z,72.56
2022-09-12T14:39:06.255Z,72.54
2022-09-12T14:44:25.495Z,72.18
2022-09-12T14:49:28.664Z,72.34
2022-09-12T14:54:31.393Z,71.89
2022-09-12T14:59:41.844Z,72.19
2022-09-12T15:04:55.351Z,72.46
2022-09-12T15:10:00.948Z,71.76
2022-09-12T15:15:15.881Z,71.36
2022-09-12T15:20:18.768Z,72.09
2022-09-12T15:25:21.625Z,72.09
2022-09-12T15:30:24.540Z,72.18
2022-09-12T15:35:32.764Z,72.05
2022-09-12T15:40:35.758Z,72.42
2022-09-12T15:45:38.615Z,72.90
2022-09-12T15:50:42.389Z,73.50
2022-09-12T15:55:45.807Z,73.23
2022-09-12T16:00:48.809Z,73.45
2022-09-12T16:05:58.624Z,73.69
2022-09-12T16:11:15.362Z,73.75
2022-09-12T16:16:18.251Z,73.95
2022-09-12T16:21:21.225Z,74.12
2022-09-12T16:26:24.134Z,74.15
2022-09-12T16:31:29.189Z,73.91
2022-09-12T16:36:32.177Z,73.94
2022-09-12T16:41:35.018Z,73.80
2022-09-12T16:46:38.088Z,73.81
2022-09-12T16:51:44.984Z,73.97
2022-09-12T16:56:49.597Z,74.01
2022-09-12T17:01:52.634Z,73.86
2022-09-12T17:06:55.643Z,73.68
2022-09-12T17:11:59.008Z,73.84
2022-09-12T17:17:01.981Z,73.94
2022-09-12T17:22:05.078Z,74.04
2022-09-12T17:27:09.666Z,73.93
2022-09-12T17:32:16.846Z,74.13
2022-09-12T17:37:21.918Z,74.11
2022-09-12T17:42:24.945Z,73.92
2022-09-12T17:47:28.309Z,73.77
2022-09-12T17:52:31.338Z,73.63
2022-09-12T17:57:34.641Z,73.92
2022-09-12T18:02:37.603Z,74.04
2022-09-12T18:07:44.072Z,74.19
2022-09-12T18:12:47.228Z,74.59
2022-09-12T18:17:50.068Z,74.80
2022-09-12T18:22:52.948Z,74.44
2022-09-12T18:27:55.826Z,74.32
2022-09-12T18:33:00.898Z,74.04
2022-09-12T18:38:03.753Z,73.86
2022-09-12T18:43:06.730Z,74.00
2022-09-12T18:48:09.570Z,74.09
2022-09-12T18:53:12.576Z,73.60
2022-09-12T18:58:15.477Z,73.73
2022-09-12T19:03:18.703Z,74.41
2022-09-12T19:08:21.564Z,74.78
2022-09-12T19:13:24.497Z,75.15
2022-09-12T19:18:27.585Z,75.50
2022-09-12T19:23:32.861Z,75.24
2022-09-12T19:28:36.302Z,75.22
2022-09-12T19:33:39.701Z,75.28
2022-09-12T19:38:42.700Z,75.38
2022-09-12T19:43:45.541Z,75.54
2022-09-12T19:48:49.092Z,75.37
2022-09-12T19:53:52.260Z,75.28
2022-09-12T19:58:56.806Z,75.49
2022-09-12T20:03:59.921Z,75.38
2022-09-12T20:09:02.889Z,75.56
2022-09-12T20:14:05.764Z,75.05
2022-09-12T20:19:08.701Z,75.56
2022-09-12T20:24:16.106Z,75.19
2022-09-12T20:29:19.061Z,75.02
2022-09-12T20:34:22.027Z,74.93
2022-09-12T20:39:25.553Z,74.78
2022-09-12T20:44:30.348Z,74.88
2022-09-12T20:49:33.293Z,75.16
2022-09-12T20:54:36.453Z,75.08
2022-09-12T20:59:42.771Z,75.28
2022-09-12T21:04:47.210Z,75.08
2022-09-12T21:09:50.372Z,75.15
2022-09-12T21:14:53.276Z,75.34
2022-09-12T21:19:56.471Z,75.55
2022-09-12T21:24:59.440Z,75.68
2022-09-12T21:30:04.038Z,75.69
2022-09-12T21:35:08.590Z,75.61
2022-09-12T21:40:11.569Z,75.41
2022-09-12T21:45:14.681Z,74.95
2022-09-12T21:50:17.655Z,75.16
2022-09-12T21:55:26.354Z,74.98
2022-09-12T22:00:29.204Z,74.72
2022-09-12T22:05:33.676Z,75.03
2022-09-12T22:10:38.656Z,74.80
2022-09-12T22:15:49.807Z,74.72
2022-09-12T22:21:04.275Z,74.60
2022-09-12T22:26:08.684Z,74.47
2022-09-12T22:31:15.557Z,74.73
2022-09-12T22:36:18.455Z,74.69
2022-09-12T22:41:21.299Z,74.79
2022-09-12T22:46:25.076Z,74.80
2022-09-12T22:51:28.126Z,74.23
2022-09-12T22:56:31.094Z,73.80
2022-09-12T23:01:35.596Z,73.70
2022-09-12T23:06:38.516Z,73.49
2022-09-12T23:11:41.378Z,73.33
2022-09-12T23:16:44.344Z,73.45
2022-09-12T23:21:47.266Z,73.54
2022-09-12T23:26:50.152Z,73.17
2022-09-12T23:31:53.188Z,73.70
2022-09-12T23:36:56.417Z,74.02
2022-09-12T23:41:59.767Z,73.48
2022-09-12T23:47:03.397Z,73.26
2022-09-12T23:52:06.416Z,73.71
2022-09-12T23:57:09.410Z,74.46
